createdAt,value
2023-09-05T17:58:11.281Z,8.48
2023-09-05T18:00:38.114Z,9.07
2023-09-05T18:03:05.248Z,7.68
2023-09-05T18:05:32.318Z,4.47
2023-09-05T18:07:59.078Z,7.10
2023-09-05T18:10:25.905Z,8.18
2023-09-05T18:12:52.806Z,6.35
2023-09-05T18:15:19.673Z,14.00
2023-09-05T18:17:46.409Z,34.13
2023-09-05T18:20:13.568Z,7.82
2023-09-05T18:22:40.471Z,11.23
2023-09-05T18:25:07.575Z,8.07
2023-09-05T18:27:34.420Z,24.67
2023-09-05T18:30:01.258Z,5.82
2023-09-05T18:32:28.674Z,9.30
2023-09-05T18:34:55.633Z,8.65
2023-09-05T18:37:25.057Z,7.53
2023-09-05T18:39:51.881Z,7.47
2023-09-05T18:42:18.747Z,7.38
2023-09-05T18:44:46.780Z,8.32
2023-09-05T18:47:13.687Z,7.63
2023-09-05T18:49:41.592Z,6.68
2023-09-05T18:52:10.726Z,8.65
2023-09-05T18:54:41.542Z,12.05
2023-09-05T18:57:09.562Z,13.02
2023-09-05T18:59:36.361Z,8.20
2023-09-05T19:02:04.660Z,8.75
2023-09-05T19:04:31.864Z,6.35
2023-09-05T19:07:03.769Z,10.10
2023-09-05T19:09:31.190Z,8.40
2023-09-05T19:11:58.248Z,7.60
2023-09-05T19:14:25.037Z,6.50
2023-09-05T19:16:56.385Z,6.97
2023-09-05T19:19:25.310Z,9.50
2023-09-05T19:21:54.261Z,12.48
2023-09-05T19:24:21.230Z,9.57
2023-09-05T19:26:51.184Z,10.70
2023-09-05T19:29:18.619Z,11.30
2023-09-05T19:31:45.512Z,13.10
2023-09-05T19:34:12.612Z,13.02
2023-09-05T19:36:39.427Z,8.52
2023-09-05T19:39:06.506Z,16.52
2023-09-05T19:41:33.748Z,20.35
2023-09-05T19:44:00.659Z,19.92
2023-09-05T19:46:27.750Z,14.05
2023-09-05T19:48:56.481Z,12.75
2023-09-05T19:51:24.730Z,9.65
2023-09-05T19:53:51.931Z,9.18
2023-09-05T19:56:18.775Z,6.75
2023-09-05T19:58:45.746Z,8.00
2023-09-05T20:01:12.797Z,8.27
2023-09-05T20:03:41.404Z,11.05
2023-09-05T20:06:08.388Z,7.20
2023-09-05T20:08:35.245Z,8.02
2023-09-05T20:11:02.036Z,8.88
2023-09-05T20:13:28.805Z,11.27
2023-09-05T20:15:56.246Z,12.18
2023-09-05T20:18:27.401Z,8.40
2023-09-05T20:20:59.882Z,9.43
2023-09-05T20:23:27.088Z,15.50
2023-09-05T20:25:54.269Z,12.93
2023-09-05T20:28:21.083Z,8.50
2023-09-05T20:30:57.507Z,8.52
2023-09-05T20:33:24.668Z,14.20
2023-09-05T20:35:55.293Z,7.85
2023-09-05T20:38:22.391Z,9.27
2023-09-05T20:40:49.461Z,9.65
2023-09-05T20:43:18.027Z,9.70
2023-09-05T20:45:45.490Z,10.65
2023-09-05T20:48:12.964Z,9.57
2023-09-05T20:50:40.117Z,11.13
2023-09-05T20:53:07.753Z,12.20
2023-09-05T20:55:34.938Z,14.07
2023-09-05T20:58:02.952Z,12.70
2023-09-05T21:00:31.439Z,13.13
2023-09-05T21:02:58.559Z,14.90
2023-09-05T21:05:26.698Z,17.35
2023-09-05T21:07:53.587Z,14.82
2023-09-05T21:10:20.417Z,15.95
2023-09-05T21:12:47.262Z,16.17
2023-09-05T21:15:15.440Z,13.93
2023-09-05T21:17:45.139Z,11.80
2023-09-05T21:20:14.400Z,13.10
2023-09-05T21:22:42.057Z,16.33
2023-09-05T21:25:16.022Z,12.25
2023-09-05T21:27:43.155Z,13.82
2023-09-05T21:30:10.956Z,13.77
2023-09-05T21:32:41.252Z,18.17
2023-09-05T21:35:08.778Z,13.87
2023-09-05T21:37:36.036Z,19.08
2023-09-05T21:40:04.671Z,16.88
2023-09-05T21:42:31.820Z,22.10
2023-09-05T21:44:58.799Z,19.63
2023-09-05T21:47:26.208Z,16.38
2023-09-05T21:49:53.104Z,19.65
2023-09-05T21:52:21.112Z,16.13
2023-09-05T21:54:48.317Z,14.80
2023-09-05T21:57:15.223Z,19.60
2023-09-05T21:59:42.330Z,22.88
2023-09-05T22:02:09.300Z,20.95
2023-09-05T22:04:38.106Z,23.25
2023-09-05T22:07:05.638Z,21.20
2023-09-05T22:09:32.461Z,16.20
2023-09-05T22:12:05.654Z,18.67
2023-09-05T22:14:33.366Z,18.50
2023-09-05T22:17:02.516Z,23.00
2023-09-05T22:19:30.100Z,20.48
2023-09-05T22:21:57.631Z,14.63
2023-09-05T22:24:27.928Z,20.65
2023-09-05T22:26:56.486Z,20.25
2023-09-05T22:29:23.744Z,21.80
2023-09-05T22:31:50.597Z,17.85
2023-09-05T22:34:17.735Z,25.92
2023-09-05T22:36:44.771Z,20.20
2023-09-05T22:39:12.012Z,19.45
2023-09-05T22:41:39.787Z,18.25
2023-09-05T22:44:07.380Z,25.00
2023-09-05T22:46:34.298Z,22.08
2023-09-05T22:49:01.261Z,18.63
2023-09-05T22:51:28.120Z,35.78
2023-09-05T22:53:54.929Z,21.27
2023-09-05T22:56:21.742Z,22.23
2023-09-05T22:58:53.064Z,26.15
2023-09-05T23:01:20.262Z,21.95
2023-09-05T23:03:47.548Z,22.05
2023-09-05T23:06:14.873Z,25.67
2023-09-05T23:08:41.712Z,23.05
2023-09-05T23:11:09.222Z,21.98
2023-09-05T23:13:39.075Z,27.13
2023-09-05T23:16:06.681Z,26.23
2023-09-05T23:18:38.829Z,30.75
2023-09-05T23:21:06.559Z,23.67
2023-09-05T23:23:36.332Z,29.83
2023-09-05T23:26:04.400Z,25.13
2023-09-05T23:28:32.108Z,24.65
2023-09-05T23:31:01.960Z,29.95
2023-09-05T23:33:30.922Z,28.15
2023-09-05T23:35:58.241Z,23.42
2023-09-05T23:38:25.287Z,27.60
2023-09-05T23:40:52.390Z,29.48
2023-09-05T23:43:19.290Z,27.83
2023-09-05T23:45:54.625Z,33.33
2023-09-05T23:48:24.727Z,30.88
2023-09-05T23:50:51.882Z,34.17
2023-09-05T23:53:18.941Z,26.70
2023-09-05T23:55:46.479Z,29.83
2023-09-05T23:58:13.742Z,28.95
